createdAt,value
2018-06-30T00:00:36.179Z,27.87
2018-06-30T00:03:05.826Z,30.47
2018-06-30T00:05:35.419Z,30.00
2018-06-30T00:08:04.985Z,30.27
2018-06-30T00:10:35.272Z,30.20
2018-06-30T00:13:04.790Z,28.50
2018-06-30T00:15:34.315Z,28.60
2018-06-30T00:18:03.849Z,25.67
2018-06-30T00:20:33.614Z,28.37
2018-06-30T00:23:03.152Z,28.37
2018-06-30T00:25:32.646Z,25.63
2018-06-30T00:28:02.189Z,25.60
2018-06-30T00:30:31.860Z,25.00
2018-06-30T00:33:01.884Z,21.90
2018-06-30T00:35:31.417Z,22.10
2018-06-30T00:38:01.028Z,23.00
2018-06-30T00:40:30.737Z,21.73
2018-06-30T00:43:00.562Z,20.97
2018-06-30T00:45:30.507Z,20.90
2018-06-30T00:48:01.515Z,19.47
2018-06-30T00:50:31.151Z,19.47
2018-06-30T00:53:00.787Z,20.03
2018-06-30T00:55:31.616Z,19.37
2018-06-30T00:58:01.638Z,21.37
2018-06-30T01:00:31.557Z,20.50
2018-06-30T01:03:01.509Z,19.37
2018-06-30T01:05:31.726Z,20.10
2018-06-30T01:08:01.460Z,21.60
2018-06-30T01:10:31.283Z,23.67
2018-06-30T01:13:01.009Z,20.60
2018-06-30T01:15:30.693Z,23.50
2018-06-30T01:18:00.188Z,24.60
2018-06-30T01:20:32.914Z,22.87
2018-06-30T01:23:03.495Z,22.37
2018-06-30T01:25:33.451Z,22.50
2018-06-30T01:28:02.996Z,23.60
2018-06-30T01:30:33.477Z,21.63
2018-06-30T01:33:03.913Z,24.47
2018-06-30T01:35:33.628Z,23.83
2018-06-30T01:38:04.755Z,23.50
2018-06-30T01:40:34.493Z,23.70
2018-06-30T01:43:04.960Z,23.60
2018-06-30T01:45:34.583Z,25.67
2018-06-30T01:48:04.457Z,25.20
2018-06-30T01:50:35.673Z,26.30
2018-06-30T01:53:05.461Z,25.47
2018-06-30T01:55:35.207Z,25.63
2018-06-30T01:58:05.174Z,28.37
2018-06-30T02:00:34.821Z,25.50
2018-06-30T02:03:12.939Z,27.90
2018-06-30T02:05:43.366Z,26.50
2018-06-30T02:08:14.456Z,28.93
2018-06-30T02:10:44.536Z,27.43
2018-06-30T02:13:14.109Z,30.93
2018-06-30T02:15:43.715Z,27.10
2018-06-30T02:18:14.090Z,29.37
2018-06-30T02:20:44.052Z,28.30
2018-06-30T02:23:13.617Z,32.90
2018-06-30T02:25:45.066Z,28.70
2018-06-30T02:28:14.611Z,27.43
2018-06-30T02:30:44.255Z,27.40
2018-06-30T02:33:13.943Z,24.77
2018-06-30T02:35:44.345Z,22.93
2018-06-30T02:38:15.104Z,22.77
2018-06-30T02:40:44.682Z,23.13
2018-06-30T02:43:14.638Z,21.67
2018-06-30T02:45:44.615Z,21.80
2018-06-30T02:48:17.996Z,22.80
2018-06-30T02:50:47.659Z,21.07
2018-06-30T02:53:17.761Z,19.90
2018-06-30T02:55:48.761Z,20.73
2018-06-30T02:58:18.216Z,21.00
2018-06-30T03:00:48.033Z,19.63
2018-06-30T03:03:18.403Z,21.33
2018-06-30T03:05:47.651Z,19.63
2018-06-30T03:08:17.651Z,20.50
2018-06-30T03:10:47.227Z,19.40
2018-06-30T03:13:19.264Z,20.23
2018-06-30T03:15:49.038Z,18.30
2018-06-30T03:18:21.048Z,18.90
2018-06-30T03:20:51.389Z,19.13
2018-06-30T03:23:20.939Z,19.70
2018-06-30T03:25:50.707Z,19.70
2018-06-30T03:28:20.743Z,19.47
2018-06-30T03:30:53.445Z,18.43
2018-06-30T03:33:23.798Z,18.77
2018-06-30T03:35:54.969Z,18.40
2018-06-30T03:38:24.630Z,18.00
2018-06-30T03:41:00.908Z,18.80
2018-06-30T03:43:30.525Z,18.70
2018-06-30T03:46:01.045Z,17.33
2018-06-30T03:48:30.665Z,16.07
2018-06-30T03:51:00.304Z,17.97
2018-06-30T03:53:29.835Z,17.00
2018-06-30T03:55:59.352Z,17.43
2018-06-30T03:58:29.025Z,17.80
2018-06-30T04:01:01.311Z,17.00
2018-06-30T04:03:30.823Z,17.03
2018-06-30T04:06:00.962Z,16.73
2018-06-30T04:08:30.712Z,16.37
2018-06-30T04:11:00.852Z,17.50
2018-06-30T04:13:30.390Z,17.53
2018-06-30T04:16:00.059Z,17.67
2018-06-30T04:18:30.349Z,15.70
2018-06-30T04:20:59.939Z,16.43
2018-06-30T04:23:29.520Z,16.90
2018-06-30T04:25:59.451Z,16.80
2018-06-30T04:28:29.200Z,16.10
2018-06-30T04:30:58.892Z,16.57
2018-06-30T04:33:28.898Z,15.83
2018-06-30T04:35:58.674Z,14.80
2018-06-30T04:38:29.356Z,15.10
2018-06-30T04:40:59.615Z,14.60
2018-06-30T04:43:29.078Z,13.20
2018-06-30T04:45:58.826Z,12.70
2018-06-30T04:48:28.404Z,13.20
2018-06-30T04:50:58.145Z,12.87
2018-06-30T04:53:27.740Z,12.07
2018-06-30T04:55:58.021Z,10.93
2018-06-30T04:58:27.764Z,11.07
2018-06-30T05:00:58.077Z,11.07
2018-06-30T05:03:28.206Z,12.70
2018-06-30T05:05:57.855Z,12.00
2018-06-30T05:08:27.458Z,11.90
2018-06-30T05:10:56.958Z,12.40
2018-06-30T05:13:27.132Z,12.33
2018-06-30T05:15:58.296Z,11.43
2018-06-30T05:18:33.346Z,11.67
2018-06-30T05:21:03.138Z,12.93
2018-06-30T05:23:32.698Z,10.57
2018-06-30T05:26:02.420Z,11.70
2018-06-30T05:28:32.280Z,11.40
2018-06-30T05:31:01.861Z,11.47
2018-06-30T05:33:32.191Z,10.43
2018-06-30T05:36:02.005Z,11.40
2018-06-30T05:38:31.898Z,10.60
2018-06-30T05:41:01.771Z,10.97
2018-06-30T05:43:31.426Z,10.30
2018-06-30T05:46:01.294Z,10.37
2018-06-30T05:48:31.121Z,10.73
2018-06-30T05:51:00.860Z,9.80
2018-06-30T05:53:30.539Z,9.77
2018-06-30T05:56:00.656Z,10.13
2018-06-30T05:58:31.586Z,11.13
2018-06-30T06:01:01.089Z,10.03
2018-06-30T06:03:30.758Z,10.10
2018-06-30T06:06:00.720Z,10.40
2018-06-30T06:08:30.337Z,9.03
2018-06-30T06:11:00.228Z,10.00
2018-06-30T06:13:29.870Z,10.07
2018-06-30T06:15:59.382Z,9.10
2018-06-30T06:18:28.899Z,9.10
2018-06-30T06:20:58.616Z,8.77
2018-06-30T06:23:28.315Z,9.17
2018-06-30T06:25:58.669Z,8.83
2018-06-30T06:28:28.155Z,9.13
2018-06-30T06:30:57.724Z,9.07
2018-06-30T06:33:27.584Z,9.30
2018-06-30T06:35:57.556Z,8.13
2018-06-30T06:38:27.220Z,9.30
2018-06-30T06:40:57.900Z,8.90
2018-06-30T06:43:27.452Z,8.70
2018-06-30T06:45:57.051Z,7.50
2018-06-30T06:48:26.820Z,8.67
2018-06-30T06:50:56.297Z,8.70
2018-06-30T06:53:25.922Z,8.20
2018-06-30T06:55:55.941Z,8.63
2018-06-30T06:58:28.002Z,9.00
2018-06-30T07:00:57.478Z,7.87
2018-06-30T07:03:27.090Z,8.93
2018-06-30T07:05:56.558Z,8.30
2018-06-30T07:08:26.109Z,9.60
2018-06-30T07:10:55.304Z,9.50
2018-06-30T07:13:25.315Z,8.30
2018-06-30T07:15:55.719Z,8.63
2018-06-30T07:18:25.232Z,9.40
2018-06-30T07:20:54.727Z,8.60
2018-06-30T07:23:24.164Z,9.43
2018-06-30T07:25:53.946Z,8.40
2018-06-30T07:28:23.368Z,9.00
2018-06-30T07:30:53.403Z,8.90
2018-06-30T07:33:23.681Z,8.97
2018-06-30T07:35:53.256Z,8.30
2018-06-30T07:38:22.788Z,9.10
2018-06-30T07:40:52.362Z,9.93
2018-06-30T07:43:21.894Z,9.93
2018-06-30T07:45:51.428Z,9.20
2018-06-30T07:48:21.071Z,9.10
2018-06-30T07:50:50.595Z,9.20
2018-06-30T07:53:20.116Z,10.30
2018-06-30T07:55:49.569Z,9.00
2018-06-30T07:58:19.114Z,9.30
2018-06-30T08:00:49.285Z,8.30
2018-06-30T08:03:18.849Z,8.40
2018-06-30T08:05:49.731Z,8.40
2018-06-30T08:08:21.202Z,7.87
2018-06-30T08:10:51.872Z,7.97
2018-06-30T08:13:22.915Z,7.20
2018-06-30T08:15:53.538Z,7.20
2018-06-30T08:18:25.112Z,7.90
2018-06-30T08:20:54.571Z,7.17
2018-06-30T08:23:24.312Z,7.53
2018-06-30T08:25:53.886Z,7.60
2018-06-30T08:28:23.988Z,7.67
2018-06-30T08:30:53.457Z,7.13
2018-06-30T08:33:22.910Z,7.60
2018-06-30T08:35:52.456Z,7.50
2018-06-30T08:38:21.906Z,7.90
2018-06-30T08:40:51.314Z,7.00
2018-06-30T08:43:20.853Z,7.20
2018-06-30T08:45:50.316Z,7.90
2018-06-30T08:48:19.768Z,7.60
2018-06-30T08:50:49.218Z,6.93
2018-06-30T08:53:18.727Z,8.00
2018-06-30T08:55:48.178Z,7.00
2018-06-30T08:58:17.656Z,7.13
2018-06-30T09:00:47.161Z,6.67
2018-06-30T09:03:16.794Z,6.40
2018-06-30T09:05:46.283Z,6.37
2018-06-30T09:08:15.726Z,6.67
2018-06-30T09:10:45.342Z,7.07
2018-06-30T09:13:14.801Z,7.80
2018-06-30T09:15:44.403Z,8.20
2018-06-30T09:18:14.400Z,7.23
2018-06-30T09:20:44.710Z,6.63
2018-06-30T09:23:14.278Z,6.93
2018-06-30T09:25:43.776Z,6.20
2018-06-30T09:28:13.280Z,6.47
2018-06-30T09:30:42.797Z,6.00
2018-06-30T09:33:12.349Z,5.97
2018-06-30T09:35:41.746Z,5.67
2018-06-30T09:38:11.436Z,5.43
2018-06-30T09:40:41.248Z,6.27
2018-06-30T09:43:10.928Z,6.70
2018-06-30T09:45:40.518Z,5.70
2018-06-30T09:48:10.590Z,6.00
2018-06-30T09:50:40.117Z,6.60
2018-06-30T09:53:09.646Z,5.70
2018-06-30T09:55:39.241Z,5.73
2018-06-30T09:58:09.019Z,4.87
2018-06-30T10:00:43.755Z,5.40
